createdAt,value
2019-02-14T00:02:29.742Z,-2.20
2019-02-14T00:04:59.827Z,-2.30
2019-02-14T00:07:29.897Z,-2.40
2019-02-14T00:10:01.847Z,-2.40
2019-02-14T00:12:31.656Z,-2.40
2019-02-14T00:15:02.950Z,-2.30
2019-02-14T00:17:32.933Z,-2.20
2019-02-14T00:20:02.924Z,-2.30
2019-02-14T00:22:35.977Z,-2.30
2019-02-14T00:25:08.479Z,-2.20
2019-02-14T00:27:39.749Z,-2.10
2019-02-14T00:30:12.450Z,-2.20
2019-02-14T00:32:44.243Z,-2.20
2019-02-14T00:35:24.544Z,-2.30
2019-02-14T00:37:47.761Z,-2.30
2019-02-14T00:40:23.569Z,-2.40
2019-02-14T00:42:56.482Z,-2.40
2019-02-14T00:45:37.604Z,-2.30
2019-02-14T00:48:07.457Z,-2.30
2019-02-14T00:50:38.740Z,-2.20
2019-02-14T00:53:09.826Z,-2.20
2019-02-14T00:55:39.983Z,-2.10
2019-02-14T00:58:10.046Z,-2.10
2019-02-14T01:00:43.360Z,-2.20
2019-02-14T01:03:13.581Z,-2.20
2019-02-14T01:05:43.576Z,-2.10
2019-02-14T01:08:13.643Z,-2.20
2019-02-14T01:10:45.474Z,-2.20
2019-02-14T01:13:18.392Z,-2.30
2019-02-14T01:15:51.333Z,-2.40
2019-02-14T01:18:22.776Z,-2.30
2019-02-14T01:20:54.542Z,-2.20
2019-02-14T01:23:29.643Z,-2.10
2019-02-14T01:26:03.053Z,-2.00
2019-02-14T01:28:33.222Z,-2.00
2019-02-14T01:31:03.546Z,-2.00
2019-02-14T01:33:36.642Z,-2.00
2019-02-14T01:36:06.817Z,-2.00
2019-02-14T01:38:38.509Z,-2.00
2019-02-14T01:41:08.686Z,-1.90
2019-02-14T01:43:38.678Z,-1.90
2019-02-14T01:46:11.543Z,-2.00
2019-02-14T01:48:41.655Z,-1.90
2019-02-14T01:51:16.578Z,-1.80
2019-02-14T01:53:43.729Z,-1.80
2019-02-14T01:56:16.590Z,-1.80
2019-02-14T01:58:50.625Z,-1.80
2019-02-14T02:01:21.825Z,-1.80
2019-02-14T02:03:51.905Z,-1.90
2019-02-14T02:06:23.695Z,-1.70
2019-02-14T02:08:53.761Z,-1.70
2019-02-14T02:11:23.843Z,-1.60
2019-02-14T02:13:57.367Z,-1.60
2019-02-14T02:16:28.349Z,-1.60
2019-02-14T02:19:00.055Z,-1.60
2019-02-14T02:21:30.131Z,-1.60
2019-02-14T02:24:00.217Z,-1.70
2019-02-14T02:26:30.293Z,-1.60
2019-02-14T02:29:03.147Z,-1.60
2019-02-14T02:31:33.147Z,-1.70
2019-02-14T02:34:04.805Z,-1.80
2019-02-14T02:36:36.596Z,-1.80
2019-02-14T02:39:09.164Z,-1.90
2019-02-14T02:41:40.930Z,-1.90
2019-02-14T02:44:14.871Z,-1.90
2019-02-14T02:46:50.994Z,-2.00
2019-02-14T02:49:22.091Z,-2.00
2019-02-14T02:51:53.296Z,-2.10
2019-02-14T02:54:23.441Z,-2.20
2019-02-14T02:56:54.733Z,-2.20
2019-02-14T02:59:28.773Z,-2.30
2019-02-14T03:01:58.862Z,-2.40
2019-02-14T03:04:28.924Z,-2.40
2019-02-14T03:07:00.489Z,-2.50
2019-02-14T03:09:30.640Z,-2.50
2019-02-14T03:12:01.655Z,-2.50
2019-02-14T03:14:31.649Z,-2.40
2019-02-14T03:17:03.281Z,-2.50
2019-02-14T03:19:36.206Z,-2.50
2019-02-14T03:22:06.277Z,-2.50
2019-02-14T03:24:36.372Z,-2.50
2019-02-14T03:27:09.372Z,-2.60
2019-02-14T03:29:44.372Z,-2.60
2019-02-14T03:32:10.826Z,-2.60
2019-02-14T03:34:43.847Z,-2.50
2019-02-14T03:37:17.042Z,-2.40
2019-02-14T03:39:47.995Z,-2.50
2019-02-14T03:42:19.254Z,-2.50
2019-02-14T03:44:50.547Z,-2.50
2019-02-14T03:47:25.753Z,-2.40
2019-02-14T03:49:55.895Z,-2.40
2019-02-14T03:52:25.972Z,-2.30
2019-02-14T03:54:56.035Z,-2.40
2019-02-14T03:57:26.196Z,-2.40
2019-02-14T03:59:57.328Z,-2.40
2019-02-14T04:02:29.014Z,-2.40
2019-02-14T04:05:00.430Z,-2.40
2019-02-14T04:07:30.544Z,-2.40
2019-02-14T04:10:01.624Z,-2.30
2019-02-14T04:12:31.704Z,-2.40
2019-02-14T04:15:01.780Z,-2.50
2019-02-14T04:17:33.574Z,-2.50
2019-02-14T04:20:05.575Z,-2.50
2019-02-14T04:22:35.644Z,-2.40
2019-02-14T04:25:15.296Z,-2.30
2019-02-14T04:27:45.377Z,-2.30
2019-02-14T04:30:15.477Z,-2.20
2019-02-14T04:32:46.660Z,-2.20
2019-02-14T04:35:19.078Z,-2.20
2019-02-14T04:37:49.240Z,-2.20
2019-02-14T04:40:22.043Z,-2.20
2019-02-14T04:42:53.236Z,-2.20
2019-02-14T04:45:23.225Z,-2.20
2019-02-14T04:47:54.545Z,-2.10
2019-02-14T04:50:24.671Z,-2.00
2019-02-14T04:52:54.769Z,-2.10
2019-02-14T04:55:24.848Z,-2.10
2019-02-14T04:57:54.835Z,-2.00
2019-02-14T05:00:27.974Z,-2.00
2019-02-14T05:03:02.571Z,-2.00
2019-02-14T05:05:36.857Z,-1.90
2019-02-14T05:08:06.990Z,-1.80
2019-02-14T05:10:40.012Z,-1.70
2019-02-14T05:13:10.107Z,-1.70
2019-02-14T05:15:42.943Z,-1.80
2019-02-14T05:18:16.806Z,-1.90
2019-02-14T05:20:46.957Z,-1.90
2019-02-14T05:23:17.026Z,-1.90
2019-02-14T05:25:48.821Z,-1.80
2019-02-14T05:28:20.483Z,-1.80
2019-02-14T05:30:50.585Z,-1.80
2019-02-14T05:33:20.746Z,-1.80
2019-02-14T05:35:52.867Z,-1.70
2019-02-14T05:38:22.933Z,-1.80
2019-02-14T05:40:54.955Z,-1.80
2019-02-14T05:43:24.731Z,-1.80
2019-02-14T05:45:55.409Z,-1.80
2019-02-14T05:48:25.573Z,-1.80
2019-02-14T05:50:57.256Z,-1.70
2019-02-14T05:53:27.368Z,-1.80
2019-02-14T05:55:58.689Z,-1.80
2019-02-14T05:58:30.398Z,-1.90
2019-02-14T06:01:01.393Z,-1.90
2019-02-14T06:03:31.472Z,-1.80
2019-02-14T06:06:01.493Z,-1.80
2019-02-14T06:08:33.189Z,-1.90
2019-02-14T06:11:03.369Z,-1.90
2019-02-14T06:13:33.370Z,-2.10
2019-02-14T06:16:06.398Z,-2.10
2019-02-14T06:18:39.112Z,-2.00
2019-02-14T06:21:09.199Z,-1.90
2019-02-14T06:23:39.288Z,-1.80
2019-02-14T06:26:09.361Z,-1.80
2019-02-14T06:28:40.628Z,-1.70
2019-02-14T06:31:10.692Z,-1.70
2019-02-14T06:33:41.695Z,-1.60
2019-02-14T06:36:11.694Z,-1.60
2019-02-14T06:38:41.694Z,-1.50
2019-02-14T06:41:11.772Z,-1.40
2019-02-14T06:43:43.031Z,-1.20
2019-02-14T06:46:13.123Z,-1.20
2019-02-14T06:48:43.216Z,-1.10
2019-02-14T06:51:14.945Z,-1.00
2019-02-14T06:53:45.030Z,-0.90
2019-02-14T06:56:16.781Z,-0.80
2019-02-14T06:58:46.859Z,-0.70
2019-02-14T07:01:18.031Z,0.50
2019-02-14T07:03:47.998Z,1.30
2019-02-14T07:06:19.453Z,1.40
2019-02-14T07:08:50.833Z,1.10
2019-02-14T07:11:23.971Z,0.70
2019-02-14T07:13:53.979Z,0.40
2019-02-14T07:16:25.331Z,0.30
2019-02-14T07:18:55.482Z,0.60
2019-02-14T07:21:27.228Z,2.20
2019-02-14T07:23:57.479Z,4.60
2019-02-14T07:26:27.473Z,5.10
2019-02-14T07:29:00.839Z,6.20
2019-02-14T07:31:30.923Z,8.10
2019-02-14T07:34:05.938Z,8.30
2019-02-14T07:36:36.056Z,7.70
2019-02-14T07:39:11.131Z,6.50
2019-02-14T07:41:41.301Z,5.50
2019-02-14T07:44:11.384Z,4.90
2019-02-14T07:46:44.245Z,5.40
2019-02-14T07:49:14.290Z,7.00
2019-02-14T07:51:44.463Z,8.50
2019-02-14T07:54:15.816Z,8.70
2019-02-14T07:56:45.861Z,8.00
2019-02-14T07:59:15.960Z,7.60
2019-02-14T08:01:46.098Z,9.40
2019-02-14T08:04:16.116Z,13.60
2019-02-14T08:06:47.810Z,16.50
2019-02-14T08:09:17.989Z,17.60
2019-02-14T08:11:49.173Z,17.70
2019-02-14T08:14:19.198Z,18.00
2019-02-14T08:16:52.488Z,17.40
2019-02-14T08:19:22.580Z,16.80
2019-02-14T08:21:54.580Z,17.00
2019-02-14T08:24:25.908Z,17.70
2019-02-14T08:26:57.665Z,17.70
2019-02-14T08:29:27.748Z,18.60
2019-02-14T08:31:57.844Z,20.70
2019-02-14T08:34:27.994Z,21.90
2019-02-14T08:37:01.133Z,22.10
2019-02-14T08:39:31.158Z,22.80
2019-02-14T08:42:01.471Z,23.80
2019-02-14T08:44:34.644Z,23.80
2019-02-14T08:47:06.348Z,24.30
2019-02-14T08:49:36.458Z,25.20
2019-02-14T08:52:09.490Z,25.90
2019-02-14T08:54:42.011Z,25.90
2019-02-14T08:57:11.426Z,26.00
2019-02-14T08:59:41.634Z,25.10
2019-02-14T09:02:13.638Z,25.40
2019-02-14T09:04:46.961Z,26.30
2019-02-14T09:07:18.799Z,26.50
2019-02-14T09:09:48.952Z,26.60
2019-02-14T09:12:23.070Z,25.40
2019-02-14T09:14:53.158Z,24.30
2019-02-14T09:17:23.235Z,23.60
2019-02-14T09:19:53.316Z,24.40
2019-02-14T09:22:23.346Z,25.10
2019-02-14T09:24:53.444Z,25.00
2019-02-14T09:27:23.939Z,26.00
2019-02-14T09:29:54.043Z,26.30
2019-02-14T09:32:26.191Z,26.60
2019-02-14T09:34:56.267Z,27.10
2019-02-14T09:37:26.341Z,27.30
2019-02-14T09:39:56.365Z,26.30
2019-02-14T09:42:26.461Z,24.80
2019-02-14T09:44:56.638Z,24.20
2019-02-14T09:47:26.804Z,24.80
2019-02-14T09:49:57.004Z,25.30
2019-02-14T09:52:27.166Z,25.50
2019-02-14T09:54:57.328Z,25.90
2019-02-14T09:57:27.356Z,25.80
2019-02-14T09:59:57.743Z,25.30
2019-02-14T10:02:27.776Z,24.70
2019-02-14T10:04:57.849Z,23.50
2019-02-14T10:07:27.967Z,23.00
2019-02-14T10:09:58.154Z,23.00
2019-02-14T10:12:28.225Z,23.70
2019-02-14T10:14:58.398Z,25.20
2019-02-14T10:17:28.471Z,26.10
2019-02-14T10:19:58.564Z,26.60
2019-02-14T10:22:28.633Z,27.50
2019-02-14T10:24:58.740Z,28.60
2019-02-14T10:27:28.816Z,29.20
2019-02-14T10:29:58.910Z,29.90
2019-02-14T10:32:29.014Z,30.20
2019-02-14T10:34:59.092Z,30.70
2019-02-14T10:37:29.244Z,30.40
2019-02-14T10:39:59.416Z,31.10
2019-02-14T10:42:29.530Z,30.50
2019-02-14T10:44:59.540Z,30.20
2019-02-14T10:47:29.642Z,30.30
2019-02-14T10:49:59.800Z,30.90
2019-02-14T10:52:29.900Z,30.70
2019-02-14T10:54:59.986Z,30.40
2019-02-14T10:57:30.090Z,30.40
2019-02-14T11:00:00.342Z,30.50
2019-02-14T11:02:30.406Z,30.20
2019-02-14T11:05:00.572Z,30.30
2019-02-14T11:07:30.753Z,30.20
2019-02-14T11:10:02.219Z,29.60
2019-02-14T11:12:35.034Z,29.70
2019-02-14T11:15:09.320Z,29.40
2019-02-14T11:17:39.427Z,28.50
2019-02-14T11:20:11.379Z,28.70
2019-02-14T11:22:41.494Z,28.50
2019-02-14T11:25:28.154Z,26.10
2019-02-14T11:27:59.319Z,23.20
2019-02-14T11:30:30.807Z,20.10
2019-02-14T11:33:03.946Z,18.10
2019-02-14T11:35:33.943Z,16.50
2019-02-14T11:38:03.940Z,15.30
2019-02-14T11:40:34.021Z,14.60
2019-02-14T11:43:04.107Z,14.00
2019-02-14T11:45:34.264Z,13.20
2019-02-14T11:48:04.408Z,12.80
2019-02-14T11:50:34.512Z,12.60
2019-02-14T11:53:13.840Z,12.50
2019-02-14T11:55:39.271Z,12.20
2019-02-14T11:58:09.421Z,12.10
2019-02-14T12:00:39.489Z,11.90
2019-02-14T12:03:09.596Z,11.80
2019-02-14T12:05:39.759Z,11.50
2019-02-14T12:08:09.853Z,11.40
2019-02-14T12:10:39.901Z,11.40
2019-02-14T12:13:10.048Z,11.00
2019-02-14T12:15:40.039Z,10.70
2019-02-14T12:18:12.694Z,10.60
2019-02-14T12:20:43.841Z,10.10
2019-02-14T12:23:15.553Z,9.80
2019-02-14T12:25:51.463Z,9.50
2019-02-14T12:28:21.539Z,9.50
2019-02-14T12:30:53.047Z,9.60
2019-02-14T12:33:23.096Z,9.60
2019-02-14T12:35:54.849Z,9.50
2019-02-14T12:38:24.928Z,9.60
2019-02-14T12:40:58.095Z,9.70
2019-02-14T12:43:29.424Z,9.90
2019-02-14T12:46:02.244Z,9.90
2019-02-14T12:48:37.273Z,9.60
2019-02-14T12:51:10.278Z,9.50
2019-02-14T12:53:43.276Z,9.50
2019-02-14T12:56:16.163Z,9.60
2019-02-14T12:58:49.572Z,9.70
2019-02-14T13:01:21.993Z,9.80
2019-02-14T13:03:51.397Z,9.90
2019-02-14T13:06:23.088Z,10.00
2019-02-14T13:08:54.273Z,10.10
2019-02-14T13:11:31.273Z,10.10
2019-02-14T13:14:02.163Z,10.10
2019-02-14T13:16:38.517Z,10.10
2019-02-14T13:19:08.617Z,10.10
2019-02-14T13:21:40.730Z,10.30
2019-02-14T13:24:10.830Z,10.40
2019-02-14T13:26:40.862Z,10.50
2019-02-14T13:29:10.875Z,10.50
2019-02-14T13:31:43.128Z,10.40
2019-02-14T13:34:13.119Z,10.20
2019-02-14T13:36:43.474Z,9.90
2019-02-14T13:39:14.685Z,9.80
2019-02-14T13:41:44.833Z,9.60
2019-02-14T13:44:15.002Z,9.60
2019-02-14T13:46:45.136Z,9.50
2019-02-14T13:49:15.257Z,9.40
2019-02-14T13:51:45.363Z,9.30
2019-02-14T13:54:18.482Z,9.20
2019-02-14T13:56:54.131Z,9.10
2019-02-14T13:59:23.152Z,9.10
2019-02-14T14:01:53.230Z,9.00
2019-02-14T14:04:25.793Z,9.20
2019-02-14T14:06:55.173Z,9.40
2019-02-14T14:09:25.255Z,9.70
2019-02-14T14:11:57.451Z,10.10
2019-02-14T14:14:30.351Z,10.40
2019-02-14T14:17:02.387Z,10.70
2019-02-14T14:19:34.127Z,10.60
2019-02-14T14:22:04.221Z,10.50
2019-02-14T14:24:34.387Z,10.20
2019-02-14T14:27:05.799Z,10.00
2019-02-14T14:29:37.555Z,9.80
2019-02-14T14:32:08.755Z,9.50
2019-02-14T14:34:39.891Z,9.20
2019-02-14T14:37:09.989Z,9.10
2019-02-14T14:39:47.820Z,8.80
2019-02-14T14:42:32.958Z,8.60
2019-02-14T14:45:04.240Z,8.50
2019-02-14T14:47:37.260Z,8.50
2019-02-14T14:50:07.787Z,8.50
2019-02-14T14:52:37.873Z,8.50
2019-02-14T14:55:10.524Z,8.50
2019-02-14T14:57:40.697Z,8.40
2019-02-14T15:00:25.551Z,8.30
2019-02-14T15:02:43.160Z,8.20
2019-02-14T15:05:13.327Z,8.10
2019-02-14T15:07:43.429Z,8.00
2019-02-14T15:10:13.673Z,7.90
2019-02-14T15:12:43.835Z,7.80
2019-02-14T15:15:14.002Z,7.80
2019-02-14T15:17:44.084Z,7.90
2019-02-14T15:20:15.752Z,7.80
2019-02-14T15:22:45.884Z,7.80
2019-02-14T15:25:16.586Z,7.70
2019-02-14T15:27:46.735Z,7.70
2019-02-14T15:30:18.011Z,7.70
2019-02-14T15:32:48.113Z,7.60
2019-02-14T15:35:18.284Z,7.60
2019-02-14T15:37:48.380Z,7.40
2019-02-14T15:40:19.175Z,7.40
2019-02-14T15:42:49.353Z,7.40
2019-02-14T15:45:22.367Z,7.30
2019-02-14T15:47:52.486Z,7.30
2019-02-14T15:50:22.590Z,7.30
2019-02-14T15:52:54.673Z,7.30
2019-02-14T15:55:26.809Z,7.20
2019-02-14T15:57:56.946Z,7.10
2019-02-14T16:00:27.102Z,7.00
2019-02-14T16:02:57.351Z,6.80
2019-02-14T16:05:27.564Z,6.50
2019-02-14T16:07:57.674Z,6.30
2019-02-14T16:10:29.604Z,6.10
2019-02-14T16:12:59.605Z,5.90
2019-02-14T16:15:31.061Z,5.70
2019-02-14T16:18:01.732Z,5.40
2019-02-14T16:20:31.969Z,5.30
2019-02-14T16:23:04.146Z,5.20
2019-02-14T16:25:33.808Z,5.00
2019-02-14T16:28:03.999Z,4.80
2019-02-14T16:30:34.114Z,4.60
2019-02-14T16:33:04.385Z,4.50
2019-02-14T16:35:34.456Z,4.40
2019-02-14T16:38:04.602Z,4.40
2019-02-14T16:40:38.612Z,4.30
2019-02-14T16:43:06.588Z,4.10
2019-02-14T16:45:36.804Z,4.00
2019-02-14T16:48:08.043Z,3.90
2019-02-14T16:50:38.211Z,3.80
2019-02-14T16:53:08.416Z,3.80
2019-02-14T16:55:38.701Z,3.80
2019-02-14T16:58:08.914Z,3.70
2019-02-14T17:00:39.090Z,3.70
2019-02-14T17:03:11.724Z,3.60
2019-02-14T17:05:41.824Z,3.50
2019-02-14T17:08:13.569Z,3.40
2019-02-14T17:10:45.004Z,3.30
2019-02-14T17:13:16.765Z,3.20
2019-02-14T17:15:48.861Z,3.20
2019-02-14T17:18:20.815Z,3.30
2019-02-14T17:20:51.015Z,3.20
2019-02-14T17:23:25.547Z,3.00
2019-02-14T17:25:59.811Z,3.00
2019-02-14T17:28:31.065Z,2.90
2019-02-14T17:31:02.647Z,2.80
2019-02-14T17:33:34.211Z,2.60
2019-02-14T17:36:04.693Z,2.50
2019-02-14T17:38:34.962Z,2.40
2019-02-14T17:41:05.169Z,2.30
2019-02-14T17:43:35.365Z,2.20
2019-02-14T17:46:05.593Z,2.10
2019-02-14T17:48:35.913Z,2.10
2019-02-14T17:51:06.075Z,2.10
2019-02-14T17:53:36.351Z,2.10
2019-02-14T17:56:06.851Z,2.00
2019-02-14T17:58:37.104Z,1.90
2019-02-14T18:01:07.252Z,1.80
2019-02-14T18:03:37.632Z,1.70
2019-02-14T18:09:08.101Z,1.50
2019-02-14T18:11:41.228Z,1.40
2019-02-14T18:14:11.465Z,1.40
2019-02-14T18:16:42.554Z,1.40
2019-02-14T18:19:14.579Z,1.50
2019-02-14T18:21:46.064Z,1.50
2019-02-14T18:24:20.232Z,1.50
2019-02-14T18:26:51.642Z,1.40
2019-02-14T18:29:24.096Z,1.50
2019-02-14T18:31:56.054Z,1.50
2019-02-14T18:34:36.492Z,1.40
2019-02-14T18:37:08.133Z,1.40
2019-02-14T18:39:39.535Z,1.20
2019-02-14T18:42:14.094Z,1.10
2019-02-14T18:44:48.474Z,1.00
2019-02-14T18:47:23.123Z,1.00
2019-02-14T18:49:58.121Z,1.10
2019-02-14T18:52:28.823Z,1.10
2019-02-14T18:55:01.713Z,1.00
2019-02-14T18:57:32.325Z,0.90
2019-02-14T19:00:13.581Z,0.90
2019-02-14T19:02:44.287Z,0.90
2019-02-14T19:05:17.729Z,0.90
2019-02-14T19:07:49.306Z,0.90
2019-02-14T19:10:19.741Z,0.80
2019-02-14T19:12:54.166Z,0.80
2019-02-14T19:15:26.144Z,0.70
2019-02-14T19:17:59.143Z,0.60
2019-02-14T19:20:32.576Z,0.50
2019-02-14T19:23:02.906Z,0.60
2019-02-14T19:25:33.362Z,0.50
2019-02-14T19:28:03.911Z,0.50
2019-02-14T19:30:40.540Z,0.40
2019-02-14T19:33:15.926Z,0.40
2019-02-14T19:35:48.225Z,0.40
2019-02-14T19:38:21.906Z,0.30
2019-02-14T19:40:54.435Z,0.20
2019-02-14T19:43:25.129Z,0.20
2019-02-14T19:45:55.675Z,-0.30
2019-02-14T19:48:26.714Z,0.10
2019-02-14T19:50:58.974Z,0.20
2019-02-14T19:53:34.257Z,0.10
2019-02-14T19:56:23.756Z,0.10
2019-02-14T19:58:56.952Z,0.00
2019-02-14T20:01:30.890Z,-0.10
2019-02-14T20:04:03.535Z,-0.20
2019-02-14T20:06:35.799Z,-0.20
2019-02-14T20:09:07.076Z,-0.10
2019-02-14T20:11:41.291Z,-0.10
2019-02-14T20:14:16.211Z,0.00
2019-02-14T20:16:51.695Z,0.00
2019-02-14T20:19:25.744Z,0.00
2019-02-14T20:21:57.208Z,-0.10
2019-02-14T20:24:29.451Z,-0.10
2019-02-14T20:27:07.968Z,-0.10
2019-02-14T20:29:39.099Z,-0.20
2019-02-14T20:32:09.413Z,-0.30
2019-02-14T20:34:44.403Z,-0.30
2019-02-14T20:37:21.939Z,-0.30
2019-02-14T20:39:52.568Z,-0.30
2019-02-14T20:42:26.554Z,-0.30
2019-02-14T20:44:57.359Z,-0.20
2019-02-14T20:47:29.683Z,-0.10
2019-02-14T20:50:04.602Z,-0.10
2019-02-14T20:52:38.743Z,0.00
2019-02-14T20:55:11.156Z,0.00
2019-02-14T20:57:45.573Z,-0.10
2019-02-14T21:00:26.170Z,-0.20
2019-02-14T21:02:56.412Z,-0.20
2019-02-14T21:05:31.304Z,-0.30
2019-02-14T21:08:03.787Z,-0.30
2019-02-14T21:10:37.819Z,-0.40
2019-02-14T21:13:08.386Z,-0.40
2019-02-14T21:15:39.780Z,-0.50
2019-02-14T21:18:12.508Z,-0.50
2019-02-14T21:20:48.471Z,-0.40
2019-02-14T21:23:19.791Z,-0.40
2019-02-14T21:25:49.961Z,-0.40
2019-02-14T21:28:22.013Z,-0.40
2019-02-14T21:30:52.198Z,-0.40
2019-02-14T21:33:22.450Z,-0.40
2019-02-14T21:35:54.456Z,-0.50
2019-02-14T21:38:25.022Z,-0.50
2019-02-14T21:41:01.090Z,-0.50
2019-02-14T21:43:37.696Z,-0.50
2019-02-14T21:46:08.292Z,-0.60
2019-02-14T21:48:41.564Z,-0.70
2019-02-14T21:51:15.553Z,-0.80
2019-02-14T21:53:45.862Z,-0.80
2019-02-14T21:56:16.179Z,-0.90
2019-02-14T21:58:46.778Z,-0.80
2019-02-14T22:01:17.676Z,-0.80
2019-02-14T22:03:53.686Z,-0.80
2019-02-14T22:06:28.478Z,-0.80
2019-02-14T22:08:58.677Z,-0.80
2019-02-14T22:11:33.860Z,-0.80
2019-02-14T22:14:01.816Z,-0.80
2019-02-14T22:16:32.027Z,-0.90
2019-02-14T22:19:02.091Z,-1.00
2019-02-14T22:21:32.288Z,-1.00
2019-02-14T22:24:02.399Z,-1.10
2019-02-14T22:26:33.717Z,-1.00
2019-02-14T22:29:03.976Z,-0.90
2019-02-14T22:31:35.253Z,-1.00
2019-02-14T22:34:05.433Z,-1.00
2019-02-14T22:36:35.541Z,-0.90
2019-02-14T22:39:06.773Z,-0.90
2019-02-14T22:41:36.847Z,-0.90
2019-02-14T22:44:06.967Z,-0.90
2019-02-14T22:46:37.076Z,-1.00
2019-02-14T22:49:07.180Z,-1.10
2019-02-14T22:51:37.266Z,-1.10
2019-02-14T22:54:07.416Z,-1.10
2019-02-14T22:56:37.508Z,-1.30
2019-02-14T22:59:07.537Z,-1.20
2019-02-14T23:01:39.404Z,-1.10
2019-02-14T23:04:09.473Z,-1.20
2019-02-14T23:06:39.564Z,-1.10
2019-02-14T23:09:10.136Z,-1.00
2019-02-14T23:11:40.243Z,-1.00
2019-02-14T23:14:10.245Z,-1.00
2019-02-14T23:16:40.372Z,-1.10
2019-02-14T23:19:13.244Z,-1.20
2019-02-14T23:21:43.362Z,-1.20
2019-02-14T23:24:22.742Z,-1.30
2019-02-14T23:26:48.007Z,-1.30
2019-02-14T23:29:22.295Z,-1.40
2019-02-14T23:31:52.469Z,-1.40
2019-02-14T23:34:26.698Z,-1.50
2019-02-14T23:36:58.364Z,-1.60
2019-02-14T23:39:28.459Z,-1.70
2019-02-14T23:41:58.466Z,-1.70
2019-02-14T23:44:28.541Z,-1.60
2019-02-14T23:47:10.741Z,-1.50
2019-02-14T23:49:31.637Z,-1.30
2019-02-14T23:52:01.731Z,-1.30
2019-02-14T23:54:32.177Z,-1.30
2019-02-14T23:57:02.277Z,-1.40
2019-02-14T23:59:34.304Z,-1.40
